< < Back
Terminal Aerodrome Forecast


Current Version              Previous Versions:   1  2  3  4  5  6  7  8  9  

Terminal Aerodrome Forecast

979
FTUS44 KHUN 160520
TAFHSV
TAF
KHSV 160520Z 1606/1706 00000KT P6SM SCT040 BKN150
     FM161000 00000KT 3SM BR FEW005 BKN150
     FM161400 32006KT P6SM SCT025 BKN250
     FM162200 VRB03KT P6SM SCT120 BKN250=

Latest METAR

528
SAUS80 KWBC 162100
MTRHSV
METAR KHSV 162053Z 36005KT 10SM FEW040 SCT060 31/19 A3001 RMK AO2 SLP153
T03060189 58021


USA.gov is the U.S. government's official web portal to all federal, state and local government web resources and services.